Aérodrome :
LOGIN :

S'inscrire | Disclaimer

   EN    FR    IT 

 










Légende :    VFR   VFR Marginal   IFR   IFR Intensif   IFR Très Intensif
Visi : 
Plafond : 
>= 8 km
>= 3000ft
5 à 8 km
1000 à 3000 ft
1500m à 5 km
500 à 1000 ft
800 à 1500m
200 à 500 ft
< 800m
< 200 ft
Symboles :   Orages  Brouillard  Fortes neiges  Fortes précipitations  Vent > 20 kt
SIGMETs :   Divers  Orages  Givrage  Turbulence  Onde Orograph.  Cendres Volcan.







- Altitude de l'aérodrome : 313 ft
- Voir les cartes d'approche


LFQA - Reims-Prunay

DERNIER METAR :
  • 222000Z AUTO 20005KT CAVOK 17/11 Q1012

METARs EXPIRÉS :
  • 221930Z AUTO 20004KT CAVOK 18/11 Q1012
  • 221900Z AUTO 20005KT CAVOK 20/11 Q1012
  • 221830Z AUTO 20005KT CAVOK 22/11 Q1012
  • 221800Z AUTO 22007KT CAVOK 23/11 Q1012
  • 221730Z AUTO 22008KT CAVOK 24/11 Q1012

TAF N/A
Pas de NOTAMs connus pour ce terrain.
1 SIGMET publié pour la FIR Paris (LFFF) :
 
Orages noyés dans la masse
LFFF SIGMET 4 VALID 221900/222100 LFPW
LFFF PARIS FIR/UIR EMBD TS FCST WI N5015 E00300 - N4915 E00315 - N4845 E00215 - N5000 E00145 - N5015 E00300 TOP FL320 MOV NE 20KT NC=



MET'MAP, la Météo Aéronautique d'un coup d'oeil ! - Copyright ORBIFLY Décembre 2007 - Disclaimer

ORBIFLY MET'MAP TEAM :

Programmation & Développement : Alexandra Zaïnal
Conception & Développement : Baudouin d'Aumeries
Co-Programmation & Développement : Marc-Olivier Méhu
Soutien technique & logistique : Manuel Goepfert

Contact : metmap@orbifly.com




SOURCES & CREDITS :

   NOAA